sensor_id;sensor_type;location;lat;lon;timestamp;P1;durP1;ratioP1;P2;durP2;ratioP2
63379;SDS011;53160;55.014;73.156;2022-07-17T00:01:50;5.00;;;5.00;;
63379;SDS011;53160;55.014;73.156;2022-07-17T00:04:25;4.00;;;4.00;;
63379;SDS011;53160;55.014;73.156;2022-07-17T00:06:51;6.00;;;5.00;;
63379;SDS011;53160;55.014;73.156;2022-07-17T00:09:17;7.00;;;6.00;;
63379;SDS011;53160;55.014;73.156;2022-07-17T00:11:43;7.75;;;7.50;;
63379;SDS011;53160;55.014;73.156;2022-07-17T00:14:13;5.00;;;5.00;;
63379;SDS011;53160;55.014;73.156;2022-07-17T00:16:39;7.00;;;6.00;;
63379;SDS011;53160;55.014;73.156;2022-07-17T00:19:15;7.00;;;7.00;;
63379;SDS011;53160;55.014;73.156;2022-07-17T00:21:42;5.25;;;5.00;;
63379;SDS011;53160;55.014;73.156;2022-07-17T00:24:08;7.00;;;7.00;;
63379;SDS011;53160;55.014;73.156;2022-07-17T00:26:40;10.00;;;10.00;;
63379;SDS011;53160;55.014;73.156;2022-07-17T00:29:06;12.75;;;11.50;;
63379;SDS011;53160;55.014;73.156;2022-07-17T00:31:39;10.00;;;10.00;;
63379;SDS011;53160;55.014;73.156;2022-07-17T00:34:10;12.25;;;11.50;;
63379;SDS011;53160;55.014;73.156;2022-07-17T00:36:36;9.50;;;9.25;;
63379;SDS011;53160;55.014;73.156;2022-07-17T00:39:07;8.00;;;8.00;;
63379;SDS011;53160;55.014;73.156;2022-07-17T00:41:34;9.00;;;8.25;;
63379;SDS011;53160;55.014;73.156;2022-07-17T00:44:04;8.00;;;8.00;;
63379;SDS011;53160;55.014;73.156;2022-07-17T00:46:30;11.25;;;10.50;;
63379;SDS011;53160;55.014;73.156;2022-07-17T00:48:56;9.25;;;9.25;;
63379;SDS011;53160;55.014;73.156;2022-07-17T00:51:22;9.00;;;8.75;;
63379;SDS011;53160;55.014;73.156;2022-07-17T00:53:49;9.00;;;9.00;;
63379;SDS011;53160;55.014;73.156;2022-07-17T00:56:17;7.50;;;7.50;;
63379;SDS011;53160;55.014;73.156;2022-07-17T00:58:47;9.25;;;8.25;;
63379;SDS011;53160;55.014;73.156;2022-07-17T01:01:19;9.50;;;9.00;;
63379;SDS011;53160;55.014;73.156;2022-07-17T01:03:45;9.00;;;8.50;;
63379;SDS011;53160;55.014;73.156;2022-07-17T01:06:12;8.50;;;8.25;;
63379;SDS011;53160;55.014;73.156;2022-07-17T01:08:38;10.75;;;10.25;;
63379;SDS011;53160;55.014;73.156;2022-07-17T01:11:04;9.00;;;8.75;;
63379;SDS011;53160;55.014;73.156;2022-07-17T01:13:42;9.00;;;9.00;;
63379;SDS011;53160;55.014;73.156;2022-07-17T01:16:11;8.50;;;8.25;;
63379;SDS011;53160;55.014;73.156;2022-07-17T01:18:37;11.75;;;11.50;;
63379;SDS011;53160;55.014;73.156;2022-07-17T01:21:05;13.50;;;11.75;;
63379;SDS011;53160;55.014;73.156;2022-07-17T01:23:31;11.75;;;11.75;;
63379;SDS011;53160;55.014;73.156;2022-07-17T01:26:06;11.00;;;10.75;;
63379;SDS011;53160;55.014;73.156;2022-07-17T01:28:32;15.75;;;13.50;;
63379;SDS011;53160;55.014;73.156;2022-07-17T01:31:00;8.75;;;8.50;;
63379;SDS011;53160;55.014;73.156;2022-07-17T01:33:26;13.25;;;13.25;;
63379;SDS011;53160;55.014;73.156;2022-07-17T01:35:53;10.75;;;10.75;;
63379;SDS011;53160;55.014;73.156;2022-07-17T01:38:21;9.75;;;8.00;;
63379;SDS011;53160;55.014;73.156;2022-07-17T01:40:47;6.00;;;6.00;;
63379;SDS011;53160;55.014;73.156;2022-07-17T01:43:13;5.25;;;5.00;;
63379;SDS011;53160;55.014;73.156;2022-07-17T01:45:39;5.75;;;5.00;;
63379;SDS011;53160;55.014;73.156;2022-07-17T01:48:06;6.00;;;6.00;;
63379;SDS011;53160;55.014;73.156;2022-07-17T01:50:42;6.50;;;6.50;;
63379;SDS011;53160;55.014;73.156;2022-07-17T01:53:08;5.75;;;5.75;;
63379;SDS011;53160;55.014;73.156;2022-07-17T01:55:45;6.25;;;6.25;;
63379;SDS011;53160;55.014;73.156;2022-07-17T01:58:12;7.25;;;7.00;;
63379;SDS011;53160;55.014;73.156;2022-07-17T02:00:38;7.00;;;6.75;;
63379;SDS011;53160;55.014;73.156;2022-07-17T02:03:05;6.00;;;5.00;;
63379;SDS011;53160;55.014;73.156;2022-07-17T02:05:31;5.75;;;5.75;;
63379;SDS011;53160;55.014;73.156;2022-07-17T02:07:57;6.50;;;6.50;;
63379;SDS011;53160;55.014;73.156;2022-07-17T02:10:28;5.00;;;5.00;;
63379;SDS011;53160;55.014;73.156;2022-07-17T02:12:55;7.25;;;7.25;;
63379;SDS011;53160;55.014;73.156;2022-07-17T02:15:23;6.00;;;5.75;;
63379;SDS011;53160;55.014;73.156;2022-07-17T02:17:56;5.00;;;5.00;;
63379;SDS011;53160;55.014;73.156;2022-07-17T02:20:27;5.75;;;5.75;;
63379;SDS011;53160;55.014;73.156;2022-07-17T02:22:53;4.25;;;4.00;;
63379;SDS011;53160;55.014;73.156;2022-07-17T02:25:19;6.25;;;6.25;;
63379;SDS011;53160;55.014;73.156;2022-07-17T02:27:46;5.67;;;5.67;;
63379;SDS011;53160;55.014;73.156;2022-07-17T02:30:13;9.75;;;9.25;;
63379;SDS011;53160;55.014;73.156;2022-07-17T02:32:39;2.75;;;2.75;;
63379;SDS011;53160;55.014;73.156;2022-07-17T02:35:07;8.00;;;8.00;;
63379;SDS011;53160;55.014;73.156;2022-07-17T02:37:34;6.25;;;6.25;;
63379;SDS011;53160;55.014;73.156;2022-07-17T02:40:01;7.25;;;6.75;;
63379;SDS011;53160;55.014;73.156;2022-07-17T02:42:27;13.00;;;11.50;;
63379;SDS011;53160;55.014;73.156;2022-07-17T02:45:01;12.50;;;12.00;;
63379;SDS011;53160;55.014;73.156;2022-07-17T02:47:30;5.50;;;5.50;;
63379;SDS011;53160;55.014;73.156;2022-07-17T02:50:02;6.00;;;5.75;;
63379;SDS011;53160;55.014;73.156;2022-07-17T02:52:29;15.00;;;14.75;;
63379;SDS011;53160;55.014;73.156;2022-07-17T02:54:56;10.25;;;8.75;;
63379;SDS011;53160;55.014;73.156;2022-07-17T02:57:22;9.00;;;8.00;;
63379;SDS011;53160;55.014;73.156;2022-07-17T02:59:49;20.00;;;16.00;;
63379;SDS011;53160;55.014;73.156;2022-07-17T03:02:25;18.50;;;16.50;;
63379;SDS011;53160;55.014;73.156;2022-07-17T03:04:51;11.50;;;11.25;;
63379;SDS011;53160;55.014;73.156;2022-07-17T03:07:18;9.25;;;8.00;;
63379;SDS011;53160;55.014;73.156;2022-07-17T03:09:44;5.75;;;5.75;;
63379;SDS011;53160;55.014;73.156;2022-07-17T03:12:11;8.00;;;8.00;;
63379;SDS011;53160;55.014;73.156;2022-07-17T03:14:37;6.75;;;6.75;;
63379;SDS011;53160;55.014;73.156;2022-07-17T03:17:04;9.00;;;9.00;;
63379;SDS011;53160;55.014;73.156;2022-07-17T03:19:40;6.50;;;6.50;;
63379;SDS011;53160;55.014;73.156;2022-07-17T03:22:06;6.75;;;6.75;;
63379;SDS011;53160;55.014;73.156;2022-07-17T03:24:32;8.75;;;8.75;;
63379;SDS011;53160;55.014;73.156;2022-07-17T03:26:59;8.25;;;7.00;;
63379;SDS011;53160;55.014;73.156;2022-07-17T03:29:26;10.75;;;9.25;;
63379;SDS011;53160;55.014;73.156;2022-07-17T03:31:54;11.00;;;11.00;;
63379;SDS011;53160;55.014;73.156;2022-07-17T03:34:20;8.25;;;8.25;;
63379;SDS011;53160;55.014;73.156;2022-07-17T03:36:46;11.00;;;10.00;;
63379;SDS011;53160;55.014;73.156;2022-07-17T03:39:14;14.50;;;14.00;;
63379;SDS011;53160;55.014;73.156;2022-07-17T03:41:40;11.25;;;11.00;;
63379;SDS011;53160;55.014;73.156;2022-07-17T03:44:06;8.00;;;8.00;;
63379;SDS011;53160;55.014;73.156;2022-07-17T03:46:34;9.75;;;9.25;;
63379;SDS011;53160;55.014;73.156;2022-07-17T03:49:01;11.75;;;10.50;;
63379;SDS011;53160;55.014;73.156;2022-07-17T03:51:27;13.00;;;10.50;;
63379;SDS011;53160;55.014;73.156;2022-07-17T03:53:54;9.25;;;8.75;;
63379;SDS011;53160;55.014;73.156;2022-07-17T03:56:30;10.00;;;9.75;;
63379;SDS011;53160;55.014;73.156;2022-07-17T03:59:06;12.25;;;11.75;;
63379;SDS011;53160;55.014;73.156;2022-07-17T04:01:38;11.75;;;10.50;;
63379;SDS011;53160;55.014;73.156;2022-07-17T04:04:04;11.00;;;10.67;;
63379;SDS011;53160;55.014;73.156;2022-07-17T04:06:30;11.00;;;11.00;;
63379;SDS011;53160;55.014;73.156;2022-07-17T04:08:56;12.00;;;10.25;;
63379;SDS011;53160;55.014;73.156;2022-07-17T04:11:22;11.00;;;9.00;;
63379;SDS011;53160;55.014;73.156;2022-07-17T04:13:53;14.50;;;14.25;;
63379;SDS011;53160;55.014;73.156;2022-07-17T04:16:19;10.75;;;10.75;;
63379;SDS011;53160;55.014;73.156;2022-07-17T04:18:45;11.00;;;9.00;;
63379;SDS011;53160;55.014;73.156;2022-07-17T04:21:11;15.50;;;12.00;;
63379;SDS011;53160;55.014;73.156;2022-07-17T04:23:43;15.00;;;13.75;;
63379;SDS011;53160;55.014;73.156;2022-07-17T04:26:09;10.75;;;10.00;;
63379;SDS011;53160;55.014;73.156;2022-07-17T04:28:36;9.25;;;7.25;;
63379;SDS011;53160;55.014;73.156;2022-07-17T04:31:04;5.75;;;5.75;;
63379;SDS011;53160;55.014;73.156;2022-07-17T04:33:40;7.75;;;7.25;;
63379;SDS011;53160;55.014;73.156;2022-07-17T04:36:07;9.75;;;9.00;;
63379;SDS011;53160;55.014;73.156;2022-07-17T04:38:33;7.25;;;7.25;;
63379;SDS011;53160;55.014;73.156;2022-07-17T04:40:59;8.25;;;8.00;;
63379;SDS011;53160;55.014;73.156;2022-07-17T04:43:25;28.50;;;15.00;;
63379;SDS011;53160;55.014;73.156;2022-07-17T04:46:00;21.75;;;16.25;;
63379;SDS011;53160;55.014;73.156;2022-07-17T04:48:26;11.50;;;11.00;;
63379;SDS011;53160;55.014;73.156;2022-07-17T04:51:02;12.00;;;9.75;;
63379;SDS011;53160;55.014;73.156;2022-07-17T04:53:28;12.75;;;8.50;;
63379;SDS011;53160;55.014;73.156;2022-07-17T04:55:56;12.75;;;10.50;;
63379;SDS011;53160;55.014;73.156;2022-07-17T04:58:22;9.25;;;7.00;;
63379;SDS011;53160;55.014;73.156;2022-07-17T05:00:48;5.50;;;5.50;;
63379;SDS011;53160;55.014;73.156;2022-07-17T05:03:14;10.00;;;9.50;;
63379;SDS011;53160;55.014;73.156;2022-07-17T05:05:41;13.25;;;12.00;;
63379;SDS011;53160;55.014;73.156;2022-07-17T05:08:07;25.75;;;16.00;;
63379;SDS011;53160;55.014;73.156;2022-07-17T05:10:33;16.25;;;14.25;;
63379;SDS011;53160;55.014;73.156;2022-07-17T05:12:59;17.25;;;11.75;;
63379;SDS011;53160;55.014;73.156;2022-07-17T05:15:25;20.50;;;15.00;;
63379;SDS011;53160;55.014;73.156;2022-07-17T05:17:51;23.25;;;13.50;;
63379;SDS011;53160;55.014;73.156;2022-07-17T05:20:18;32.00;;;13.50;;
63379;SDS011;53160;55.014;73.156;2022-07-17T05:22:49;26.00;;;17.50;;
63379;SDS011;53160;55.014;73.156;2022-07-17T05:25:15;16.50;;;15.25;;
63379;SDS011;53160;55.014;73.156;2022-07-17T05:27:42;12.00;;;9.75;;
63379;SDS011;53160;55.014;73.156;2022-07-17T05:30:08;22.75;;;15.50;;
63379;SDS011;53160;55.014;73.156;2022-07-17T05:32:43;10.75;;;8.75;;
63379;SDS011;53160;55.014;73.156;2022-07-17T05:35:09;23.25;;;17.25;;
63379;SDS011;53160;55.014;73.156;2022-07-17T05:37:35;18.25;;;16.00;;
63379;SDS011;53160;55.014;73.156;2022-07-17T05:40:03;9.00;;;8.25;;
63379;SDS011;53160;55.014;73.156;2022-07-17T05:42:29;5.25;;;5.25;;
63379;SDS011;53160;55.014;73.156;2022-07-17T05:45:05;6.00;;;5.75;;
63379;SDS011;53160;55.014;73.156;2022-07-17T05:47:35;7.25;;;7.25;;
63379;SDS011;53160;55.014;73.156;2022-07-17T05:50:01;7.50;;;7.50;;
63379;SDS011;53160;55.014;73.156;2022-07-17T05:52:27;12.75;;;10.50;;
63379;SDS011;53160;55.014;73.156;2022-07-17T05:54:53;15.50;;;10.00;;
63379;SDS011;53160;55.014;73.156;2022-07-17T05:57:20;15.00;;;12.50;;
63379;SDS011;53160;55.014;73.156;2022-07-17T05:59:46;21.50;;;14.00;;
63379;SDS011;53160;55.014;73.156;2022-07-17T06:02:12;15.75;;;12.50;;
63379;SDS011;53160;55.014;73.156;2022-07-17T06:04:38;10.50;;;8.00;;
63379;SDS011;53160;55.014;73.156;2022-07-17T06:07:05;4.75;;;4.75;;
63379;SDS011;53160;55.014;73.156;2022-07-17T06:09:34;5.50;;;5.50;;
63379;SDS011;53160;55.014;73.156;2022-07-17T06:12:00;11.00;;;9.25;;
63379;SDS011;53160;55.014;73.156;2022-07-17T06:14:26;5.50;;;4.75;;
63379;SDS011;53160;55.014;73.156;2022-07-17T06:16:52;15.00;;;11.25;;
63379;SDS011;53160;55.014;73.156;2022-07-17T06:19:19;11.00;;;9.25;;
63379;SDS011;53160;55.014;73.156;2022-07-17T06:21:53;10.00;;;8.50;;
63379;SDS011;53160;55.014;73.156;2022-07-17T06:24:19;7.00;;;7.00;;
63379;SDS011;53160;55.014;73.156;2022-07-17T06:26:45;6.75;;;6.00;;
63379;SDS011;53160;55.014;73.156;2022-07-17T06:29:12;11.75;;;8.25;;
63379;SDS011;53160;55.014;73.156;2022-07-17T06:31:40;11.00;;;8.00;;
63379;SDS011;53160;55.014;73.156;2022-07-17T06:34:25;8.00;;;6.00;;
63379;SDS011;53160;55.014;73.156;2022-07-17T06:36:51;11.50;;;8.50;;
63379;SDS011;53160;55.014;73.156;2022-07-17T06:39:17;7.25;;;6.75;;
63379;SDS011;53160;55.014;73.156;2022-07-17T06:41:49;8.25;;;7.00;;
63379;SDS011;53160;55.014;73.156;2022-07-17T06:44:16;10.00;;;8.50;;
63379;SDS011;53160;55.014;73.156;2022-07-17T06:46:45;10.50;;;7.00;;
63379;SDS011;53160;55.014;73.156;2022-07-17T06:49:11;16.75;;;11.75;;
63379;SDS011;53160;55.014;73.156;2022-07-17T06:51:37;19.50;;;12.25;;
63379;SDS011;53160;55.014;73.156;2022-07-17T06:54:03;9.75;;;6.50;;
63379;SDS011;53160;55.014;73.156;2022-07-17T06:56:30;7.25;;;6.25;;
63379;SDS011;53160;55.014;73.156;2022-07-17T06:58:56;11.00;;;6.75;;
63379;SDS011;53160;55.014;73.156;2022-07-17T07:01:22;7.25;;;6.25;;
63379;SDS011;53160;55.014;73.156;2022-07-17T07:03:53;6.50;;;6.50;;
63379;SDS011;53160;55.014;73.156;2022-07-17T07:06:19;7.00;;;5.00;;
63379;SDS011;53160;55.014;73.156;2022-07-17T07:08:47;4.25;;;4.25;;
63379;SDS011;53160;55.014;73.156;2022-07-17T07:11:13;5.75;;;4.50;;
63379;SDS011;53160;55.014;73.156;2022-07-17T07:13:40;6.25;;;4.00;;
63379;SDS011;53160;55.014;73.156;2022-07-17T07:16:06;3.00;;;3.00;;
63379;SDS011;53160;55.014;73.156;2022-07-17T07:18:32;3.00;;;3.00;;
63379;SDS011;53160;55.014;73.156;2022-07-17T07:20:58;6.00;;;5.25;;
63379;SDS011;53160;55.014;73.156;2022-07-17T07:23:25;4.25;;;4.00;;
63379;SDS011;53160;55.014;73.156;2022-07-17T07:25:51;4.25;;;4.25;;
63379;SDS011;53160;55.014;73.156;2022-07-17T07:28:17;4.00;;;4.00;;
63379;SDS011;53160;55.014;73.156;2022-07-17T07:30:43;5.00;;;5.00;;
63379;SDS011;53160;55.014;73.156;2022-07-17T07:33:10;5.00;;;5.00;;
63379;SDS011;53160;55.014;73.156;2022-07-17T07:35:46;8.50;;;6.25;;
63379;SDS011;53160;55.014;73.156;2022-07-17T07:38:12;7.00;;;5.25;;
63379;SDS011;53160;55.014;73.156;2022-07-17T07:40:38;4.00;;;4.00;;
63379;SDS011;53160;55.014;73.156;2022-07-17T07:43:05;5.50;;;5.25;;
63379;SDS011;53160;55.014;73.156;2022-07-17T07:45:31;3.25;;;3.25;;
63379;SDS011;53160;55.014;73.156;2022-07-17T07:47:57;4.50;;;4.00;;
63379;SDS011;53160;55.014;73.156;2022-07-17T07:50:24;3.75;;;3.00;;
63379;SDS011;53160;55.014;73.156;2022-07-17T07:52:51;4.25;;;3.00;;
63379;SDS011;53160;55.014;73.156;2022-07-17T07:55:17;3.25;;;3.00;;
63379;SDS011;53160;55.014;73.156;2022-07-17T07:57:43;3.00;;;3.00;;
63379;SDS011;53160;55.014;73.156;2022-07-17T08:00:10;5.00;;;5.00;;
63379;SDS011;53160;55.014;73.156;2022-07-17T08:02:42;3.33;;;3.33;;
63379;SDS011;53160;55.014;73.156;2022-07-17T08:05:09;3.00;;;3.00;;
63379;SDS011;53160;55.014;73.156;2022-07-17T08:07:35;3.25;;;3.25;;
63379;SDS011;53160;55.014;73.156;2022-07-17T08:10:02;6.00;;;6.00;;
63379;SDS011;53160;55.014;73.156;2022-07-17T08:12:34;6.00;;;4.25;;
63379;SDS011;53160;55.014;73.156;2022-07-17T08:15:01;4.00;;;2.75;;
63379;SDS011;53160;55.014;73.156;2022-07-17T08:17:27;4.00;;;4.00;;
63379;SDS011;53160;55.014;73.156;2022-07-17T08:19:53;3.00;;;3.00;;
63379;SDS011;53160;55.014;73.156;2022-07-17T08:22:19;3.25;;;3.25;;
63379;SDS011;53160;55.014;73.156;2022-07-17T08:24:51;4.00;;;4.00;;
63379;SDS011;53160;55.014;73.156;2022-07-17T08:27:17;4.00;;;4.00;;
63379;SDS011;53160;55.014;73.156;2022-07-17T08:29:43;6.25;;;6.25;;
63379;SDS011;53160;55.014;73.156;2022-07-17T08:32:11;0.25;;;0.25;;
63379;SDS011;53160;55.014;73.156;2022-07-17T08:34:42;2.75;;;2.75;;
63379;SDS011;53160;55.014;73.156;2022-07-17T08:37:08;4.75;;;4.75;;
63379;SDS011;53160;55.014;73.156;2022-07-17T08:39:34;2.75;;;2.25;;
63379;SDS011;53160;55.014;73.156;2022-07-17T08:42:03;3.75;;;3.25;;
63379;SDS011;53160;55.014;73.156;2022-07-17T08:44:30;2.75;;;2.25;;
63379;SDS011;53160;55.014;73.156;2022-07-17T08:46:57;3.25;;;3.25;;
63379;SDS011;53160;55.014;73.156;2022-07-17T08:49:23;2.00;;;2.00;;
63379;SDS011;53160;55.014;73.156;2022-07-17T08:51:50;2.00;;;2.00;;
63379;SDS011;53160;55.014;73.156;2022-07-17T08:54:26;3.50;;;3.00;;
63379;SDS011;53160;55.014;73.156;2022-07-17T08:56:53;3.00;;;2.25;;
63379;SDS011;53160;55.014;73.156;2022-07-17T08:59:19;3.00;;;3.00;;
63379;SDS011;53160;55.014;73.156;2022-07-17T09:01:45;2.20;;;2.20;;
63379;SDS011;53160;55.014;73.156;2022-07-17T09:04:11;2.00;;;2.00;;
63379;SDS011;53160;55.014;73.156;2022-07-17T09:06:44;3.00;;;3.00;;
63379;SDS011;53160;55.014;73.156;2022-07-17T09:09:16;3.00;;;2.60;;
63379;SDS011;53160;55.014;73.156;2022-07-17T09:11:46;2.40;;;2.40;;
63379;SDS011;53160;55.014;73.156;2022-07-17T09:14:13;3.00;;;2.80;;
63379;SDS011;53160;55.014;73.156;2022-07-17T09:16:53;3.00;;;3.00;;
63379;SDS011;53160;55.014;73.156;2022-07-17T09:19:41;3.00;;;3.00;;
63379;SDS011;53160;55.014;73.156;2022-07-17T09:22:09;3.40;;;3.40;;
63379;SDS011;53160;55.014;73.156;2022-07-17T09:24:47;3.00;;;3.00;;
63379;SDS011;53160;55.014;73.156;2022-07-17T09:27:16;4.00;;;3.00;;
63379;SDS011;53160;55.014;73.156;2022-07-17T09:29:58;2.40;;;2.40;;
63379;SDS011;53160;55.014;73.156;2022-07-17T09:32:34;3.00;;;3.00;;
63379;SDS011;53160;55.014;73.156;2022-07-17T09:35:02;4.00;;;4.00;;
63379;SDS011;53160;55.014;73.156;2022-07-17T09:40:13;4.00;;;4.00;;
63379;SDS011;53160;55.014;73.156;2022-07-17T09:42:58;0.00;;;0.00;;
63379;SDS011;53160;55.014;73.156;2022-07-17T09:45:40;3.20;;;3.20;;
63379;SDS011;53160;55.014;73.156;2022-07-17T09:48:08;3.00;;;3.00;;
63379;SDS011;53160;55.014;73.156;2022-07-17T09:50:35;4.00;;;4.00;;
63379;SDS011;53160;55.014;73.156;2022-07-17T09:53:02;4.00;;;3.00;;
63379;SDS011;53160;55.014;73.156;2022-07-17T09:55:30;3.20;;;3.20;;
63379;SDS011;53160;55.014;73.156;2022-07-17T09:57:58;2.60;;;2.60;;
63379;SDS011;53160;55.014;73.156;2022-07-17T10:00:25;3.00;;;2.00;;
63379;SDS011;53160;55.014;73.156;2022-07-17T10:02:51;3.00;;;3.00;;
63379;SDS011;53160;55.014;73.156;2022-07-17T10:05:21;3.60;;;3.60;;
63379;SDS011;53160;55.014;73.156;2022-07-17T10:07:47;3.60;;;3.00;;
63379;SDS011;53160;55.014;73.156;2022-07-17T10:10:17;2.00;;;2.00;;
63379;SDS011;53160;55.014;73.156;2022-07-17T10:12:45;2.80;;;2.00;;
63379;SDS011;53160;55.014;73.156;2022-07-17T10:15:12;3.20;;;3.20;;
63379;SDS011;53160;55.014;73.156;2022-07-17T10:17:39;2.20;;;2.20;;
63379;SDS011;53160;55.014;73.156;2022-07-17T10:20:22;2.40;;;2.40;;
63379;SDS011;53160;55.014;73.156;2022-07-17T10:22:49;3.00;;;3.00;;
63379;SDS011;53160;55.014;73.156;2022-07-17T10:25:21;3.60;;;3.60;;
63379;SDS011;53160;55.014;73.156;2022-07-17T10:27:51;3.20;;;3.00;;
63379;SDS011;53160;55.014;73.156;2022-07-17T10:30:25;3.00;;;2.80;;
63379;SDS011;53160;55.014;73.156;2022-07-17T10:32:56;2.40;;;2.40;;
63379;SDS011;53160;55.014;73.156;2022-07-17T10:35:29;2.20;;;2.00;;
63379;SDS011;53160;55.014;73.156;2022-07-17T10:38:08;3.00;;;3.00;;
63379;SDS011;53160;55.014;73.156;2022-07-17T10:40:41;3.00;;;3.00;;
63379;SDS011;53160;55.014;73.156;2022-07-17T10:43:08;3.00;;;3.00;;
63379;SDS011;53160;55.014;73.156;2022-07-17T10:45:40;3.00;;;3.00;;
63379;SDS011;53160;55.014;73.156;2022-07-17T10:53:09;1.60;;;1.60;;
63379;SDS011;53160;55.014;73.156;2022-07-17T10:55:36;1.00;;;1.00;;
63379;SDS011;53160;55.014;73.156;2022-07-17T10:58:03;1.80;;;1.80;;
63379;SDS011;53160;55.014;73.156;2022-07-17T11:00:33;2.00;;;2.00;;
63379;SDS011;53160;55.014;73.156;2022-07-17T11:03:07;3.00;;;3.00;;
63379;SDS011;53160;55.014;73.156;2022-07-17T11:05:34;3.40;;;3.40;;
63379;SDS011;53160;55.014;73.156;2022-07-17T11:08:00;3.40;;;3.00;;
63379;SDS011;53160;55.014;73.156;2022-07-17T11:10:27;2.00;;;2.00;;
63379;SDS011;53160;55.014;73.156;2022-07-17T11:12:55;3.00;;;3.00;;
63379;SDS011;53160;55.014;73.156;2022-07-17T11:15:21;3.40;;;3.40;;
63379;SDS011;53160;55.014;73.156;2022-07-17T11:17:50;1.60;;;1.60;;
63379;SDS011;53160;55.014;73.156;2022-07-17T11:20:17;3.00;;;2.20;;
63379;SDS011;53160;55.014;73.156;2022-07-17T11:22:43;3.60;;;3.60;;
63379;SDS011;53160;55.014;73.156;2022-07-17T11:25:13;4.00;;;4.00;;
63379;SDS011;53160;55.014;73.156;2022-07-17T11:27:48;3.60;;;3.60;;
63379;SDS011;53160;55.014;73.156;2022-07-17T11:30:15;4.00;;;3.60;;
63379;SDS011;53160;55.014;73.156;2022-07-17T11:32:41;2.80;;;2.80;;
63379;SDS011;53160;55.014;73.156;2022-07-17T11:35:20;2.60;;;2.60;;
63379;SDS011;53160;55.014;73.156;2022-07-17T11:37:48;3.00;;;2.00;;
63379;SDS011;53160;55.014;73.156;2022-07-17T11:40:14;2.80;;;2.80;;
63379;SDS011;53160;55.014;73.156;2022-07-17T11:42:40;3.00;;;2.60;;
63379;SDS011;53160;55.014;73.156;2022-07-17T11:45:13;2.80;;;2.80;;
63379;SDS011;53160;55.014;73.156;2022-07-17T11:47:40;6.60;;;4.80;;
63379;SDS011;53160;55.014;73.156;2022-07-17T11:52:51;4.00;;;4.00;;
63379;SDS011;53160;55.014;73.156;2022-07-17T11:55:18;4.40;;;4.00;;
63379;SDS011;53160;55.014;73.156;2022-07-17T11:57:48;3.60;;;3.00;;
63379;SDS011;53160;55.014;73.156;2022-07-17T12:00:15;4.80;;;4.00;;
63379;SDS011;53160;55.014;73.156;2022-07-17T12:02:42;4.60;;;4.60;;
63379;SDS011;53160;55.014;73.156;2022-07-17T12:05:09;4.00;;;3.40;;
63379;SDS011;53160;55.014;73.156;2022-07-17T12:07:41;2.00;;;2.00;;
63379;SDS011;53160;55.014;73.156;2022-07-17T12:10:14;4.60;;;4.60;;
63379;SDS011;53160;55.014;73.156;2022-07-17T12:12:50;4.00;;;4.00;;
63379;SDS011;53160;55.014;73.156;2022-07-17T12:15:43;3.00;;;3.00;;
63379;SDS011;53160;55.014;73.156;2022-07-17T12:18:26;4.60;;;4.20;;
63379;SDS011;53160;55.014;73.156;2022-07-17T12:20:54;5.80;;;3.40;;
63379;SDS011;53160;55.014;73.156;2022-07-17T12:28:40;4.00;;;4.00;;
63379;SDS011;53160;55.014;73.156;2022-07-17T12:31:07;3.00;;;3.00;;
63379;SDS011;53160;55.014;73.156;2022-07-17T12:33:33;5.00;;;4.80;;
63379;SDS011;53160;55.014;73.156;2022-07-17T12:36:00;2.60;;;2.60;;
63379;SDS011;53160;55.014;73.156;2022-07-17T12:38:26;6.00;;;5.00;;
63379;SDS011;53160;55.014;73.156;2022-07-17T12:40:58;2.00;;;1.60;;
63379;SDS011;53160;55.014;73.156;2022-07-17T12:43:25;4.60;;;4.60;;
63379;SDS011;53160;55.014;73.156;2022-07-17T12:46:02;4.40;;;4.00;;
63379;SDS011;53160;55.014;73.156;2022-07-17T12:48:28;7.80;;;7.00;;
63379;SDS011;53160;55.014;73.156;2022-07-17T12:50:54;4.00;;;4.00;;
63379;SDS011;53160;55.014;73.156;2022-07-17T12:53:21;3.40;;;3.00;;
63379;SDS011;53160;55.014;73.156;2022-07-17T12:55:47;5.40;;;4.40;;
63379;SDS011;53160;55.014;73.156;2022-07-17T12:58:13;13.60;;;13.40;;
63379;SDS011;53160;55.014;73.156;2022-07-17T13:00:40;6.00;;;6.00;;
63379;SDS011;53160;55.014;73.156;2022-07-17T13:03:06;4.00;;;4.00;;
63379;SDS011;53160;55.014;73.156;2022-07-17T13:05:37;5.00;;;5.00;;
63379;SDS011;53160;55.014;73.156;2022-07-17T13:08:04;5.00;;;5.00;;
63379;SDS011;53160;55.014;73.156;2022-07-17T13:10:30;4.00;;;4.00;;
63379;SDS011;53160;55.014;73.156;2022-07-17T13:12:59;5.20;;;4.80;;
63379;SDS011;53160;55.014;73.156;2022-07-17T13:15:30;6.60;;;6.40;;
63379;SDS011;53160;55.014;73.156;2022-07-17T13:17:56;6.20;;;6.00;;
63379;SDS011;53160;55.014;73.156;2022-07-17T13:20:23;9.80;;;7.20;;
63379;SDS011;53160;55.014;73.156;2022-07-17T13:22:49;4.00;;;4.00;;
63379;SDS011;53160;55.014;73.156;2022-07-17T13:25:16;5.00;;;5.00;;
63379;SDS011;53160;55.014;73.156;2022-07-17T13:27:42;6.00;;;6.00;;
63379;SDS011;53160;55.014;73.156;2022-07-17T13:30:08;2.80;;;2.80;;
63379;SDS011;53160;55.014;73.156;2022-07-17T13:32:35;5.25;;;5.25;;
63379;SDS011;53160;55.014;73.156;2022-07-17T13:35:01;7.00;;;7.00;;
63379;SDS011;53160;55.014;73.156;2022-07-17T13:37:28;5.00;;;5.00;;
63379;SDS011;53160;55.014;73.156;2022-07-17T13:39:54;12.40;;;12.00;;
63379;SDS011;53160;55.014;73.156;2022-07-17T13:42:20;7.60;;;6.80;;
63379;SDS011;53160;55.014;73.156;2022-07-17T13:44:47;7.75;;;7.75;;
63379;SDS011;53160;55.014;73.156;2022-07-17T13:47:14;11.20;;;11.20;;
63379;SDS011;53160;55.014;73.156;2022-07-17T13:49:40;6.60;;;6.60;;
63379;SDS011;53160;55.014;73.156;2022-07-17T13:52:06;16.00;;;16.00;;
63379;SDS011;53160;55.014;73.156;2022-07-17T13:54:33;15.40;;;14.40;;
63379;SDS011;53160;55.014;73.156;2022-07-17T13:56:59;10.75;;;10.75;;
63379;SDS011;53160;55.014;73.156;2022-07-17T13:59:26;14.50;;;13.25;;
63379;SDS011;53160;55.014;73.156;2022-07-17T14:02:01;8.50;;;8.50;;
63379;SDS011;53160;55.014;73.156;2022-07-17T14:04:27;19.20;;;17.60;;
63379;SDS011;53160;55.014;73.156;2022-07-17T14:06:53;21.20;;;19.60;;
63379;SDS011;53160;55.014;73.156;2022-07-17T14:09:29;13.00;;;11.25;;
63379;SDS011;53160;55.014;73.156;2022-07-17T14:11:56;7.50;;;7.00;;
63379;SDS011;53160;55.014;73.156;2022-07-17T14:14:22;30.40;;;29.20;;
63379;SDS011;53160;55.014;73.156;2022-07-17T14:16:48;41.20;;;35.40;;
63379;SDS011;53160;55.014;73.156;2022-07-17T14:19:14;46.80;;;36.20;;
63379;SDS011;53160;55.014;73.156;2022-07-17T14:21:41;61.20;;;45.00;;
63379;SDS011;53160;55.014;73.156;2022-07-17T14:24:08;65.20;;;52.20;;
63379;SDS011;53160;55.014;73.156;2022-07-17T14:26:35;65.00;;;50.60;;
63379;SDS011;53160;55.014;73.156;2022-07-17T14:29:02;49.40;;;42.40;;
63379;SDS011;53160;55.014;73.156;2022-07-17T14:31:35;55.20;;;43.40;;
63379;SDS011;53160;55.014;73.156;2022-07-17T14:34:15;59.60;;;47.20;;
63379;SDS011;53160;55.014;73.156;2022-07-17T14:36:44;19.20;;;18.40;;
63379;SDS011;53160;55.014;73.156;2022-07-17T14:39:10;56.00;;;45.20;;
63379;SDS011;53160;55.014;73.156;2022-07-17T14:41:38;77.60;;;66.80;;
63379;SDS011;53160;55.014;73.156;2022-07-17T14:44:04;110.00;;;99.40;;
63379;SDS011;53160;55.014;73.156;2022-07-17T14:46:41;96.60;;;93.00;;
63379;SDS011;53160;55.014;73.156;2022-07-17T14:49:07;81.80;;;75.80;;
63379;SDS011;53160;55.014;73.156;2022-07-17T14:51:33;62.00;;;48.20;;